createdAt,value
2023-05-19T00:00:10.127Z,0.79
2023-05-19T00:01:10.207Z,0.80
2023-05-19T00:02:10.366Z,0.79
2023-05-19T00:03:10.392Z,0.79
2023-05-19T00:04:10.364Z,0.79
2023-05-19T00:05:10.439Z,0.79
2023-05-19T00:06:10.508Z,0.79
2023-05-19T00:07:10.545Z,0.78
2023-05-19T00:08:10.566Z,0.79
2023-05-19T00:09:10.636Z,0.80
2023-05-19T00:10:10.670Z,0.79
2023-05-19T00:11:10.702Z,0.79
2023-05-19T00:12:10.915Z,0.79
2023-05-19T00:13:10.901Z,0.80
2023-05-19T00:14:10.955Z,0.79
2023-05-19T00:15:11.014Z,0.80
2023-05-19T00:16:11.102Z,0.78
2023-05-19T00:17:11.126Z,0.79
2023-05-19T00:18:11.192Z,0.80
2023-05-19T00:19:11.200Z,0.79
2023-05-19T00:20:11.213Z,0.80
2023-05-19T00:21:11.231Z,0.80
2023-05-19T00:22:11.334Z,0.79
2023-05-19T00:23:11.374Z,0.79
2023-05-19T00:24:11.406Z,0.80
2023-05-19T00:25:11.485Z,0.78
2023-05-19T00:26:11.519Z,0.79
2023-05-19T00:27:11.558Z,0.78
2023-05-19T00:28:11.649Z,0.79
2023-05-19T00:29:11.719Z,0.79
2023-05-19T00:30:11.761Z,0.79
2023-05-19T00:31:11.856Z,0.77
2023-05-19T00:32:12.015Z,0.79
2023-05-19T00:33:12.049Z,0.79
2023-05-19T00:34:12.064Z,0.80
2023-05-19T00:35:12.077Z,0.79
2023-05-19T00:36:12.200Z,0.79
2023-05-19T00:37:12.136Z,0.79
2023-05-19T00:38:12.199Z,0.79
2023-05-19T00:39:12.214Z,0.79
2023-05-19T00:40:12.210Z,0.78
2023-05-19T00:41:12.239Z,0.78
2023-05-19T00:42:12.323Z,0.78
2023-05-19T00:43:12.299Z,0.78
2023-05-19T00:44:12.332Z,0.77
2023-05-19T00:45:12.329Z,0.78
2023-05-19T00:46:12.654Z,0.77
2023-05-19T00:47:12.461Z,0.78
2023-05-19T00:48:12.468Z,0.77
2023-05-19T00:49:12.549Z,0.78
2023-05-19T00:50:13.547Z,0.78
2023-05-19T00:51:12.687Z,0.78
2023-05-19T00:52:12.693Z,0.78
2023-05-19T00:53:12.701Z,0.78
2023-05-19T00:54:12.697Z,0.77
2023-05-19T00:55:12.660Z,0.78
2023-05-19T00:56:12.664Z,0.77
2023-05-19T00:57:12.769Z,0.78
2023-05-19T00:58:12.836Z,0.78
2023-05-19T00:59:12.838Z,0.78
2023-05-19T01:00:13.073Z,0.77
2023-05-19T01:01:12.893Z,0.77
2023-05-19T01:02:12.899Z,0.78
2023-05-19T01:03:13.198Z,0.78
2023-05-19T01:04:13.027Z,0.77
2023-05-19T01:05:13.190Z,0.78
2023-05-19T01:06:13.188Z,0.78
2023-05-19T01:07:13.132Z,0.80
2023-05-19T01:08:13.172Z,0.77
2023-05-19T01:09:13.175Z,0.76
2023-05-19T01:10:13.166Z,0.77
2023-05-19T01:11:13.210Z,0.78
2023-05-19T01:12:13.355Z,0.77
2023-05-19T01:13:13.447Z,0.78
2023-05-19T01:14:13.407Z,0.78
2023-05-19T01:15:13.465Z,0.77
2023-05-19T01:16:13.620Z,0.77
2023-05-19T01:17:13.400Z,0.78
2023-05-19T01:18:13.435Z,0.76
2023-05-19T01:19:13.538Z,0.77
2023-05-19T01:20:13.658Z,0.77
2023-05-19T01:21:13.714Z,0.79
2023-05-19T01:22:13.799Z,0.77
2023-05-19T01:23:13.918Z,0.78
2023-05-19T01:24:13.994Z,0.77
2023-05-19T01:25:14.155Z,0.77
2023-05-19T01:26:14.242Z,0.77
2023-05-19T01:27:14.285Z,0.77
2023-05-19T01:28:14.392Z,0.77
2023-05-19T01:29:14.412Z,0.77
2023-05-19T01:30:14.440Z,0.78
2023-05-19T01:31:14.445Z,0.77
2023-05-19T01:32:14.501Z,0.76
2023-05-19T01:33:14.444Z,0.77
2023-05-19T01:34:14.533Z,0.76
2023-05-19T01:35:14.725Z,0.77
2023-05-19T01:36:14.630Z,0.77
2023-05-19T01:37:14.647Z,0.78
2023-05-19T01:38:14.604Z,0.77
2023-05-19T01:39:14.649Z,0.76
2023-05-19T01:40:14.605Z,0.76
2023-05-19T01:41:14.670Z,0.77
2023-05-19T01:42:14.613Z,0.76
2023-05-19T01:43:14.703Z,0.75
2023-05-19T01:44:14.643Z,0.76
2023-05-19T01:45:14.695Z,0.76
2023-05-19T01:46:14.793Z,0.77
2023-05-19T01:47:14.767Z,0.77
2023-05-19T01:48:14.805Z,0.77
2023-05-19T01:49:14.783Z,0.77
2023-05-19T01:50:14.778Z,0.76
2023-05-19T01:51:14.785Z,0.76
2023-05-19T01:52:14.876Z,0.76
2023-05-19T01:53:14.898Z,0.76
2023-05-19T01:54:14.908Z,0.76
2023-05-19T01:55:14.887Z,0.77
2023-05-19T01:56:14.910Z,0.76
2023-05-19T01:57:14.907Z,0.77
2023-05-19T01:58:14.992Z,0.76
2023-05-19T01:59:15.095Z,0.77
2023-05-19T02:00:15.015Z,0.77
2023-05-19T02:01:15.027Z,0.76
2023-05-19T02:02:15.301Z,0.76
2023-05-19T02:03:15.129Z,0.76
2023-05-19T02:04:15.256Z,0.77
2023-05-19T02:05:15.261Z,0.77
2023-05-19T02:06:15.256Z,0.76
2023-05-19T02:07:15.290Z,0.76
2023-05-19T02:08:15.364Z,0.77
2023-05-19T02:09:15.477Z,0.76
2023-05-19T02:10:15.570Z,0.76
2023-05-19T02:11:15.594Z,0.77
2023-05-19T02:12:15.642Z,0.76
2023-05-19T02:13:15.590Z,0.77
2023-05-19T02:14:15.655Z,0.75
2023-05-19T02:15:15.673Z,0.75
2023-05-19T02:16:15.678Z,0.76
2023-05-19T02:17:15.676Z,0.75
2023-05-19T02:18:15.731Z,0.77
2023-05-19T02:19:15.720Z,0.76
2023-05-19T02:20:15.743Z,0.76
2023-05-19T02:21:15.849Z,0.76
2023-05-19T02:22:15.882Z,0.76
2023-05-19T02:23:15.877Z,0.77
2023-05-19T02:24:15.928Z,0.76
2023-05-19T02:25:15.927Z,0.76
2023-05-19T02:26:15.924Z,0.76
2023-05-19T02:27:15.948Z,0.75
2023-05-19T02:28:15.954Z,0.76
2023-05-19T02:29:15.951Z,0.75
2023-05-19T02:30:15.966Z,0.76
2023-05-19T02:31:16.029Z,0.76
2023-05-19T02:32:16.002Z,0.76
2023-05-19T02:33:16.039Z,0.77
2023-05-19T02:34:16.062Z,0.75
2023-05-19T02:35:16.024Z,0.76
2023-05-19T02:36:16.069Z,0.75
2023-05-19T02:37:16.128Z,0.76
2023-05-19T02:38:16.209Z,0.75
2023-05-19T02:39:16.186Z,0.76
2023-05-19T02:40:16.194Z,0.75
2023-05-19T02:41:16.208Z,0.76
2023-05-19T02:42:16.228Z,0.75
2023-05-19T02:43:16.316Z,0.75
2023-05-19T02:44:16.308Z,0.74
2023-05-19T02:45:16.305Z,0.75
2023-05-19T02:46:16.365Z,0.75
2023-05-19T02:47:16.336Z,0.75
2023-05-19T02:48:16.450Z,0.76
2023-05-19T02:49:16.450Z,0.75
2023-05-19T02:50:16.464Z,0.77
2023-05-19T02:51:16.474Z,0.76
2023-05-19T02:52:16.493Z,0.75
2023-05-19T02:53:16.578Z,0.76
2023-05-19T02:54:16.596Z,0.76
2023-05-19T02:55:16.726Z,0.75
2023-05-19T02:56:16.700Z,0.75
2023-05-19T02:57:16.718Z,0.74
2023-05-19T02:58:16.743Z,0.76
2023-05-19T02:59:16.721Z,0.75
2023-05-19T03:00:16.745Z,0.75
2023-05-19T03:01:16.930Z,0.74
2023-05-19T03:02:16.979Z,0.74
2023-05-19T03:03:17.097Z,0.74
2023-05-19T03:04:17.152Z,0.75
2023-05-19T03:05:17.168Z,0.75
2023-05-19T03:06:17.139Z,0.75
2023-05-19T03:07:17.123Z,0.74
2023-05-19T03:08:17.179Z,0.75
2023-05-19T03:09:17.176Z,0.74
2023-05-19T03:10:17.275Z,0.74
2023-05-19T03:11:17.286Z,0.74
2023-05-19T03:12:17.345Z,0.74
2023-05-19T03:13:17.339Z,0.74
2023-05-19T03:14:17.350Z,0.74
2023-05-19T03:15:17.354Z,0.75
2023-05-19T03:16:17.437Z,0.73
2023-05-19T03:17:17.745Z,0.75
2023-05-19T03:18:17.408Z,0.75
2023-05-19T03:19:17.532Z,0.74
2023-05-19T03:20:17.525Z,0.74
2023-05-19T03:21:17.524Z,0.75
2023-05-19T03:22:17.523Z,0.75
2023-05-19T03:23:17.519Z,0.74
2023-05-19T03:24:17.546Z,0.74
2023-05-19T03:25:17.644Z,0.73
2023-05-19T03:26:17.704Z,0.75
2023-05-19T03:27:17.856Z,0.75
2023-05-19T03:28:17.982Z,0.74
2023-05-19T03:29:18.057Z,0.74
2023-05-19T03:30:18.142Z,0.74
2023-05-19T03:31:18.187Z,0.74
2023-05-19T03:32:18.233Z,0.75
2023-05-19T03:33:18.382Z,0.73
2023-05-19T03:34:18.213Z,0.74
2023-05-19T03:35:18.220Z,0.74
2023-05-19T03:36:18.229Z,0.74
2023-05-19T03:37:18.228Z,0.74
2023-05-19T03:38:18.257Z,0.75
2023-05-19T03:39:18.240Z,0.74
2023-05-19T03:40:18.364Z,0.74
2023-05-19T03:41:18.346Z,0.73
2023-05-19T03:42:18.368Z,0.74
2023-05-19T03:43:18.330Z,0.74
2023-05-19T03:44:18.378Z,0.73
2023-05-19T03:45:18.342Z,0.73
2023-05-19T03:46:18.429Z,0.73
2023-05-19T03:47:18.400Z,0.74
2023-05-19T03:48:21.092Z,0.74
2023-05-19T03:49:18.428Z,0.74
2023-05-19T03:50:18.415Z,0.75
2023-05-19T03:51:18.421Z,0.74
2023-05-19T03:52:18.397Z,0.76
2023-05-19T03:53:18.448Z,0.74
2023-05-19T03:54:18.382Z,0.72
2023-05-19T03:55:18.354Z,0.73
2023-05-19T03:56:18.383Z,0.73
2023-05-19T03:57:18.344Z,0.74
2023-05-19T03:58:18.336Z,0.73
2023-05-19T03:59:18.333Z,0.72
2023-05-19T04:00:18.318Z,0.74
2023-05-19T04:01:18.331Z,0.73
2023-05-19T04:02:18.337Z,0.73
2023-05-19T04:03:18.546Z,0.72
2023-05-19T04:04:18.380Z,0.72
2023-05-19T04:05:18.331Z,0.69
2023-05-19T04:06:18.324Z,0.67
2023-05-19T04:07:18.330Z,0.66
2023-05-19T04:08:18.311Z,0.67
2023-05-19T04:09:18.285Z,0.64
2023-05-19T04:10:18.295Z,0.61
2023-05-19T04:11:18.265Z,0.60
2023-05-19T04:12:18.299Z,0.59
2023-05-19T04:13:18.266Z,0.57
2023-05-19T04:14:18.257Z,0.56
2023-05-19T04:15:18.251Z,0.55
2023-05-19T04:16:18.272Z,0.54
2023-05-19T04:17:18.226Z,0.52
2023-05-19T04:18:18.221Z,0.50
2023-05-19T04:19:18.227Z,0.50
2023-05-19T04:20:18.209Z,0.51
2023-05-19T04:21:18.217Z,0.51
2023-05-19T04:22:18.207Z,0.50
2023-05-19T04:23:18.179Z,0.50
2023-05-19T04:24:18.203Z,0.50
2023-05-19T04:25:18.191Z,0.50
2023-05-19T04:26:18.175Z,0.50
2023-05-19T04:27:18.160Z,0.51
2023-05-19T04:28:18.174Z,0.50
2023-05-19T04:29:18.583Z,0.50
2023-05-19T04:30:18.780Z,0.50
2023-05-19T04:31:18.155Z,0.50
2023-05-19T04:32:18.218Z,0.51
2023-05-19T04:33:18.154Z,0.51
2023-05-19T04:34:18.135Z,0.50
2023-05-19T04:35:18.108Z,0.51
2023-05-19T04:36:18.113Z,0.51
2023-05-19T04:37:18.108Z,0.51
2023-05-19T04:38:18.131Z,0.52
2023-05-19T04:39:18.077Z,0.51
2023-05-19T04:40:18.069Z,0.52
2023-05-19T04:41:18.078Z,0.51
2023-05-19T04:42:18.078Z,0.51
2023-05-19T04:43:18.104Z,0.51
2023-05-19T04:44:18.133Z,0.52
2023-05-19T04:45:18.053Z,0.52
2023-05-19T04:46:18.038Z,0.52
2023-05-19T04:47:18.023Z,0.52
2023-05-19T04:48:18.014Z,0.52
2023-05-19T04:49:17.995Z,0.52
2023-05-19T04:50:18.018Z,0.53
2023-05-19T04:51:18.071Z,0.53
2023-05-19T04:52:18.109Z,0.53
2023-05-19T04:53:18.116Z,0.53
2023-05-19T04:54:18.121Z,0.53
2023-05-19T04:55:18.172Z,0.53
2023-05-19T04:56:18.174Z,0.53
2023-05-19T04:57:18.156Z,0.53
2023-05-19T04:58:18.185Z,0.54
2023-05-19T04:59:18.201Z,0.53
2023-05-19T05:00:18.293Z,0.53
2023-05-19T05:01:18.421Z,0.53
2023-05-19T05:02:18.552Z,0.53
2023-05-19T05:03:18.487Z,0.53
2023-05-19T05:04:18.438Z,0.54
2023-05-19T05:05:18.531Z,0.54
2023-05-19T05:06:18.519Z,0.54
2023-05-19T05:07:18.509Z,0.54
2023-05-19T05:08:18.553Z,0.54
2023-05-19T05:09:18.565Z,0.53
2023-05-19T05:10:18.604Z,0.54
2023-05-19T05:11:18.665Z,0.55
2023-05-19T05:12:18.696Z,0.55
2023-05-19T05:13:18.690Z,0.55
2023-05-19T05:14:18.678Z,0.54
2023-05-19T05:15:18.807Z,0.54
2023-05-19T05:16:18.883Z,0.55
2023-05-19T05:17:18.813Z,0.54
2023-05-19T05:18:18.829Z,0.54
2023-05-19T05:19:18.866Z,0.55
2023-05-19T05:20:18.912Z,0.55
2023-05-19T05:21:18.993Z,0.55
2023-05-19T05:22:19.094Z,0.55
2023-05-19T05:23:19.208Z,0.55
2023-05-19T05:24:19.279Z,0.55
2023-05-19T05:25:19.278Z,0.55
2023-05-19T05:26:19.286Z,0.55
2023-05-19T05:27:19.304Z,0.56
2023-05-19T05:28:19.347Z,0.55
2023-05-19T05:29:19.305Z,0.55
2023-05-19T05:30:20.323Z,0.56
2023-05-19T05:31:19.375Z,0.56
2023-05-19T05:32:19.403Z,0.55
2023-05-19T05:33:19.525Z,0.55
2023-05-19T05:34:19.394Z,0.56
2023-05-19T05:35:19.361Z,0.55
2023-05-19T05:36:19.513Z,0.56
2023-05-19T05:37:19.504Z,0.56
2023-05-19T05:38:19.516Z,0.56
2023-05-19T05:39:19.469Z,0.56
2023-05-19T05:40:19.509Z,0.57
2023-05-19T05:41:19.507Z,0.57
2023-05-19T05:42:19.551Z,0.57
2023-05-19T05:43:19.568Z,0.56
2023-05-19T05:44:19.573Z,0.57
2023-05-19T05:45:19.550Z,0.56
2023-05-19T05:46:19.577Z,0.58
2023-05-19T05:47:19.596Z,0.57
2023-05-19T05:48:19.601Z,0.56
2023-05-19T05:49:19.581Z,0.57
2023-05-19T05:50:19.604Z,0.57
2023-05-19T05:51:19.622Z,0.56
2023-05-19T05:52:19.577Z,0.57
2023-05-19T05:53:19.553Z,0.57
2023-05-19T05:54:19.620Z,0.58
2023-05-19T05:55:19.734Z,0.57
2023-05-19T05:56:19.869Z,0.57
2023-05-19T05:57:19.797Z,0.57
2023-05-19T05:58:19.822Z,0.58
2023-05-19T05:59:20.152Z,0.57
2023-05-19T06:00:19.865Z,0.58
2023-05-19T06:01:19.927Z,0.58
2023-05-19T06:02:20.042Z,0.58
2023-05-19T06:03:20.241Z,0.60
2023-05-19T06:04:20.202Z,0.59
2023-05-19T06:05:20.360Z,0.60
2023-05-19T06:06:20.269Z,0.59
2023-05-19T06:07:20.283Z,0.59
2023-05-19T06:08:20.332Z,0.59
2023-05-19T06:09:20.361Z,0.59
2023-05-19T06:10:20.378Z,0.59
2023-05-19T06:11:20.371Z,0.60
2023-05-19T06:12:20.462Z,0.59
2023-05-19T06:13:20.514Z,0.60
2023-05-19T06:14:20.560Z,0.60
2023-05-19T06:15:20.633Z,0.61
2023-05-19T06:16:20.698Z,0.60
2023-05-19T06:17:20.759Z,0.62
2023-05-19T06:18:20.773Z,0.61
2023-05-19T06:19:20.827Z,0.62
2023-05-19T06:20:20.854Z,0.64
2023-05-19T06:21:20.900Z,0.64
2023-05-19T06:22:20.931Z,0.65
2023-05-19T06:23:20.980Z,0.65
2023-05-19T06:24:21.024Z,0.65
2023-05-19T06:25:21.037Z,0.66
2023-05-19T06:26:21.053Z,0.65
2023-05-19T06:27:21.101Z,0.67
2023-05-19T06:28:21.180Z,0.67
2023-05-19T06:29:21.189Z,0.66
2023-05-19T06:30:21.228Z,0.67
2023-05-19T06:31:21.271Z,0.67
2023-05-19T06:32:21.330Z,0.67
2023-05-19T06:33:21.286Z,0.67
2023-05-19T06:34:21.356Z,0.67
2023-05-19T06:35:21.411Z,0.65
2023-05-19T06:36:21.438Z,0.67
2023-05-19T06:37:21.479Z,0.67
2023-05-19T06:38:21.503Z,0.69
2023-05-19T06:39:21.564Z,0.68
2023-05-19T06:40:21.597Z,0.68
2023-05-19T06:41:21.593Z,0.66
2023-05-19T06:42:21.611Z,0.68
2023-05-19T06:43:21.667Z,0.67
2023-05-19T06:44:21.663Z,0.68
2023-05-19T06:45:21.675Z,0.70
2023-05-19T06:46:21.753Z,0.69
2023-05-19T06:47:21.746Z,0.69
2023-05-19T06:48:21.749Z,0.68
2023-05-19T06:49:21.765Z,0.67
2023-05-19T06:50:21.774Z,0.67
2023-05-19T06:51:21.820Z,0.68
2023-05-19T06:52:21.779Z,0.63
2023-05-19T06:53:21.805Z,0.63
2023-05-19T06:54:21.821Z,0.68
2023-05-19T06:55:21.806Z,0.70
2023-05-19T06:56:21.800Z,0.68
2023-05-19T06:57:21.833Z,0.68
2023-05-19T06:58:21.897Z,0.65
2023-05-19T06:59:21.906Z,0.67
2023-05-19T07:00:23.830Z,0.68
2023-05-19T07:01:22.050Z,0.70
2023-05-19T07:02:22.013Z,0.66
2023-05-19T07:03:22.178Z,0.67
2023-05-19T07:04:22.139Z,0.68
2023-05-19T07:05:22.176Z,0.66
2023-05-19T07:06:22.247Z,0.68
2023-05-19T07:07:22.298Z,0.69
2023-05-19T07:08:22.311Z,0.70
2023-05-19T07:09:22.406Z,0.70
2023-05-19T07:10:22.405Z,0.69
2023-05-19T07:11:22.476Z,0.74
2023-05-19T07:12:22.502Z,0.71
2023-05-19T07:13:23.260Z,0.71
2023-05-19T07:14:22.560Z,0.69
2023-05-19T07:15:22.581Z,0.70
2023-05-19T07:16:22.757Z,0.69
2023-05-19T07:17:22.894Z,0.70
2023-05-19T07:18:22.741Z,0.69
2023-05-19T07:19:22.863Z,0.70
2023-05-19T07:20:22.784Z,0.72
2023-05-19T07:21:22.845Z,0.72
2023-05-19T07:22:22.866Z,0.69
2023-05-19T07:23:22.930Z,0.74
2023-05-19T07:24:22.922Z,0.69
2023-05-19T07:25:23.030Z,0.71
2023-05-19T07:26:23.038Z,0.69
2023-05-19T07:27:23.145Z,0.69
2023-05-19T07:28:23.156Z,0.72
2023-05-19T07:29:23.228Z,0.68
2023-05-19T07:30:23.271Z,0.70
2023-05-19T07:31:23.402Z,0.67
2023-05-19T07:32:23.617Z,0.70
2023-05-19T07:33:23.455Z,0.66
2023-05-19T07:34:23.503Z,0.68
2023-05-19T07:35:23.548Z,0.69
2023-05-19T07:36:23.613Z,0.67
2023-05-19T07:37:23.690Z,0.66
2023-05-19T07:38:23.757Z,0.67
2023-05-19T07:39:23.843Z,0.68
2023-05-19T07:40:23.810Z,0.67
2023-05-19T07:41:23.931Z,0.67
2023-05-19T07:42:23.918Z,0.67
2023-05-19T07:43:23.979Z,0.67
2023-05-19T07:44:24.014Z,0.67
2023-05-19T07:45:24.077Z,0.67
2023-05-19T07:46:24.206Z,0.68
2023-05-19T07:47:24.208Z,0.68
2023-05-19T07:48:24.203Z,0.65
2023-05-19T07:49:24.287Z,0.66
2023-05-19T07:50:24.329Z,0.66
2023-05-19T07:51:24.367Z,0.66
2023-05-19T07:52:24.356Z,0.66
2023-05-19T07:53:24.415Z,0.66
2023-05-19T07:54:24.496Z,0.66
2023-05-19T07:55:24.464Z,0.65
2023-05-19T07:56:24.487Z,0.67
2023-05-19T07:57:24.507Z,0.67
2023-05-19T07:58:24.552Z,0.67
2023-05-19T07:59:24.548Z,0.66
2023-05-19T08:00:24.646Z,0.66
2023-05-19T08:01:24.854Z,0.65
2023-05-19T08:02:24.706Z,0.66
2023-05-19T08:03:24.785Z,0.66
2023-05-19T08:04:24.742Z,0.65
2023-05-19T08:05:24.653Z,0.67
2023-05-19T08:06:24.710Z,0.66
2023-05-19T08:07:24.754Z,0.66
2023-05-19T08:08:24.722Z,0.65
2023-05-19T08:09:24.785Z,0.67
2023-05-19T08:10:24.880Z,0.66
2023-05-19T08:11:24.825Z,0.66
2023-05-19T08:12:24.890Z,0.65
2023-05-19T08:13:24.915Z,0.66
2023-05-19T08:14:24.933Z,0.67
2023-05-19T08:15:24.973Z,0.66
2023-05-19T08:16:25.027Z,0.65
2023-05-19T08:17:25.091Z,0.65
2023-05-19T08:18:25.100Z,0.65
2023-05-19T08:19:25.192Z,0.67
2023-05-19T08:20:25.158Z,0.67
2023-05-19T08:21:25.182Z,0.65
2023-05-19T08:22:25.190Z,0.64
2023-05-19T08:23:25.238Z,0.65
2023-05-19T08:24:25.271Z,0.65
2023-05-19T08:25:25.281Z,0.66
2023-05-19T08:26:25.306Z,0.65
2023-05-19T08:27:25.296Z,0.65
2023-05-19T08:28:25.353Z,0.65
2023-05-19T08:30:25.344Z,0.65
2023-05-19T08:31:25.482Z,0.65
2023-05-19T08:32:25.430Z,0.65
2023-05-19T08:33:25.368Z,0.64
2023-05-19T08:34:25.417Z,0.65
2023-05-19T08:35:25.449Z,0.66
2023-05-19T08:36:25.514Z,0.65
2023-05-19T08:37:25.540Z,0.64
2023-05-19T08:38:25.613Z,0.66
2023-05-19T08:39:25.697Z,0.66
2023-05-19T08:40:25.766Z,0.65
2023-05-19T08:41:25.767Z,0.66
2023-05-19T08:42:25.830Z,0.65
2023-05-19T08:43:25.909Z,0.67
2023-05-19T08:44:25.990Z,0.66
2023-05-19T08:45:25.995Z,0.67
2023-05-19T08:46:26.205Z,0.66
2023-05-19T08:47:26.173Z,0.67
2023-05-19T08:48:26.217Z,0.67
2023-05-19T08:49:26.230Z,0.65
2023-05-19T08:50:26.281Z,0.66
2023-05-19T08:51:26.333Z,0.64
2023-05-19T08:52:26.417Z,0.66
2023-05-19T08:54:27.480Z,0.66
2023-05-19T08:55:26.471Z,0.66
2023-05-19T08:56:26.446Z,0.66
2023-05-19T08:57:26.433Z,0.67
2023-05-19T08:58:28.120Z,0.66
2023-05-19T08:59:26.432Z,0.67
2023-05-19T09:00:26.436Z,0.67
2023-05-19T09:01:26.537Z,0.66
2023-05-19T09:02:26.586Z,0.67
2023-05-19T09:03:26.754Z,0.65
2023-05-19T09:04:28.410Z,0.66
2023-05-19T09:05:26.717Z,0.67
2023-05-19T09:06:26.686Z,0.66
2023-05-19T09:07:26.684Z,0.67
2023-05-19T09:08:26.617Z,0.65
2023-05-19T09:09:26.672Z,0.67
2023-05-19T09:10:27.935Z,0.66
2023-05-19T09:11:26.775Z,0.66
2023-05-19T09:12:26.787Z,0.66
2023-05-19T09:13:26.868Z,0.66
2023-05-19T09:14:26.895Z,0.66
2023-05-19T09:15:26.958Z,0.66
2023-05-19T09:16:28.618Z,0.66
2023-05-19T09:17:27.064Z,0.66
2023-05-19T09:18:27.102Z,0.66
2023-05-19T09:19:27.143Z,0.67
2023-05-19T09:20:26.997Z,0.65
2023-05-19T09:21:26.936Z,0.66
2023-05-19T09:22:26.969Z,0.65
2023-05-19T09:23:26.958Z,0.66
2023-05-19T09:24:26.980Z,0.65
2023-05-19T09:25:26.962Z,0.65
2023-05-19T09:26:26.908Z,0.66
2023-05-19T09:27:26.925Z,0.66
2023-05-19T09:28:26.927Z,0.67
2023-05-19T09:29:26.905Z,0.67
2023-05-19T09:30:26.897Z,0.67
2023-05-19T09:31:26.891Z,0.67
2023-05-19T09:32:27.243Z,0.67
2023-05-19T09:33:26.922Z,0.66
2023-05-19T09:34:26.860Z,0.66
2023-05-19T09:35:26.906Z,0.66
2023-05-19T09:36:26.901Z,0.68
2023-05-19T09:37:26.872Z,0.67
2023-05-19T09:38:26.943Z,0.67
2023-05-19T09:39:26.872Z,0.66
2023-05-19T09:40:26.839Z,0.67
2023-05-19T09:41:26.846Z,0.68
2023-05-19T09:42:26.828Z,0.66
2023-05-19T09:43:26.819Z,0.67
2023-05-19T09:44:26.817Z,0.67
2023-05-19T09:45:26.847Z,0.66
2023-05-19T09:46:26.866Z,0.67
2023-05-19T09:47:26.823Z,0.68
2023-05-19T09:48:26.823Z,0.68
2023-05-19T09:49:26.788Z,0.68
2023-05-19T09:50:26.932Z,0.67
2023-05-19T09:51:26.750Z,0.68
2023-05-19T09:52:26.795Z,0.70
2023-05-19T09:53:26.808Z,0.68
2023-05-19T09:54:26.765Z,0.68
2023-05-19T09:55:26.736Z,0.68
2023-05-19T09:56:26.763Z,0.69
2023-05-19T09:57:26.713Z,0.70
2023-05-19T09:58:26.819Z,0.69
2023-05-19T09:59:27.540Z,0.69
2023-05-19T10:00:26.708Z,0.68
2023-05-19T10:01:26.813Z,0.67
2023-05-19T10:02:26.736Z,0.69
2023-05-19T10:03:26.739Z,0.68
2023-05-19T10:04:26.663Z,0.67
2023-05-19T10:05:26.701Z,0.67
2023-05-19T10:06:26.678Z,0.67
2023-05-19T10:07:26.678Z,0.66
2023-05-19T10:08:26.686Z,0.66
2023-05-19T10:09:26.641Z,0.67
2023-05-19T10:10:26.679Z,0.66
2023-05-19T10:11:26.669Z,0.64
2023-05-19T10:12:26.667Z,0.64
2023-05-19T10:13:26.627Z,0.64
2023-05-19T10:14:26.631Z,0.65
2023-05-19T10:15:26.573Z,0.65
2023-05-19T10:16:26.672Z,0.63
2023-05-19T10:17:26.667Z,0.64
2023-05-19T10:18:26.590Z,0.63
2023-05-19T10:19:26.761Z,0.63
2023-05-19T10:20:26.567Z,0.62
2023-05-19T10:21:26.580Z,0.62
2023-05-19T10:22:26.615Z,0.63
2023-05-19T10:23:26.647Z,0.64
2023-05-19T10:24:26.639Z,0.63
2023-05-19T10:25:26.690Z,0.62
2023-05-19T10:26:26.750Z,0.65
2023-05-19T10:27:26.765Z,0.64
2023-05-19T10:28:26.861Z,0.65
2023-05-19T10:29:26.936Z,0.64
2023-05-19T10:30:26.994Z,0.63
2023-05-19T10:31:27.072Z,0.63
2023-05-19T10:32:27.311Z,0.63
2023-05-19T10:33:27.176Z,0.64
2023-05-19T10:34:27.228Z,0.64
2023-05-19T10:35:27.278Z,0.64
2023-05-19T10:36:27.329Z,0.64
2023-05-19T10:37:27.399Z,0.65
2023-05-19T10:38:27.445Z,0.63
2023-05-19T10:39:27.566Z,0.63
2023-05-19T10:40:27.592Z,0.63
2023-05-19T10:41:27.582Z,0.64
2023-05-19T10:42:27.623Z,0.64
2023-05-19T10:43:27.705Z,0.64
2023-05-19T10:44:28.476Z,0.63
2023-05-19T10:45:27.868Z,0.64
2023-05-19T10:46:27.842Z,0.63
2023-05-19T10:47:27.915Z,0.64
2023-05-19T10:48:27.888Z,0.65
2023-05-19T10:49:27.999Z,0.64
2023-05-19T10:50:28.002Z,0.63
2023-05-19T10:51:28.058Z,0.64
2023-05-19T10:52:28.081Z,0.65
2023-05-19T10:53:28.125Z,0.64
2023-05-19T10:54:28.183Z,0.66
2023-05-19T10:55:28.227Z,0.65
2023-05-19T10:56:28.214Z,0.65
2023-05-19T10:57:28.280Z,0.65
2023-05-19T10:58:28.365Z,0.66
2023-05-19T10:59:29.608Z,0.63
2023-05-19T11:00:28.464Z,0.65
2023-05-19T11:01:28.474Z,0.66
2023-05-19T11:02:28.537Z,0.66
2023-05-19T11:03:29.039Z,0.66
2023-05-19T11:04:28.661Z,0.67
2023-05-19T11:05:28.584Z,0.68
2023-05-19T11:06:28.676Z,0.66
2023-05-19T11:07:28.670Z,0.68
2023-05-19T11:08:28.742Z,0.67
2023-05-19T11:09:39.696Z,0.67
2023-05-19T11:10:29.785Z,0.67
2023-05-19T11:11:28.775Z,0.68
2023-05-19T11:12:28.780Z,0.68
2023-05-19T11:13:28.729Z,0.69
2023-05-19T11:14:28.730Z,0.70
2023-05-19T11:15:28.754Z,0.70
2023-05-19T11:16:28.748Z,0.71
2023-05-19T11:17:28.727Z,0.70
2023-05-19T11:18:28.711Z,0.72
2023-05-19T11:19:28.849Z,0.72
2023-05-19T11:20:28.729Z,0.72
2023-05-19T11:21:28.714Z,0.71
2023-05-19T11:22:28.677Z,0.72
2023-05-19T11:23:28.710Z,0.74
2023-05-19T11:24:28.638Z,0.74
2023-05-19T11:25:28.751Z,0.73
2023-05-19T11:26:28.714Z,0.73
2023-05-19T11:27:28.637Z,0.75
2023-05-19T11:28:28.724Z,0.74
2023-05-19T11:29:28.668Z,0.75
2023-05-19T11:30:28.683Z,0.75
2023-05-19T11:31:28.751Z,0.74
2023-05-19T11:32:28.714Z,0.73
2023-05-19T11:33:28.752Z,0.74
2023-05-19T11:34:28.719Z,0.74
2023-05-19T11:35:28.763Z,0.75
2023-05-19T11:36:28.736Z,0.76
2023-05-19T11:37:28.792Z,0.75
2023-05-19T11:38:28.779Z,0.75
2023-05-19T11:39:28.786Z,0.76
2023-05-19T11:40:28.795Z,0.75
2023-05-19T11:41:28.802Z,0.78
2023-05-19T11:42:28.811Z,0.77
2023-05-19T11:43:28.811Z,0.77
2023-05-19T11:44:28.825Z,0.77
2023-05-19T11:45:28.840Z,0.74
2023-05-19T11:46:28.846Z,0.77
2023-05-19T11:47:28.817Z,0.78
2023-05-19T11:48:28.856Z,0.78
2023-05-19T11:49:28.817Z,0.78
2023-05-19T11:50:28.832Z,0.79
2023-05-19T11:51:28.786Z,0.78
2023-05-19T11:52:28.832Z,0.78
2023-05-19T11:53:28.800Z,0.79
2023-05-19T11:54:28.782Z,0.79
2023-05-19T11:55:28.785Z,0.79
2023-05-19T11:56:28.786Z,0.78
2023-05-19T11:57:28.806Z,0.79
2023-05-19T11:58:28.915Z,0.80
2023-05-19T11:59:28.845Z,0.79
2023-05-19T12:00:28.827Z,0.78
2023-05-19T12:01:28.788Z,0.81
2023-05-19T12:02:28.905Z,0.79
2023-05-19T12:03:28.999Z,0.78
2023-05-19T12:04:28.859Z,0.80
2023-05-19T12:05:28.842Z,0.80
2023-05-19T12:06:28.886Z,0.81
2023-05-19T12:07:28.842Z,0.79
2023-05-19T12:08:28.788Z,0.77
2023-05-19T12:09:28.791Z,0.78
2023-05-19T12:10:28.805Z,0.80
2023-05-19T12:11:28.792Z,0.80
2023-05-19T12:12:28.806Z,0.80
2023-05-19T12:13:28.816Z,0.80
2023-05-19T12:14:28.770Z,0.80
2023-05-19T12:15:28.792Z,0.81
2023-05-19T12:16:29.721Z,0.80
2023-05-19T12:17:28.834Z,0.80
2023-05-19T12:18:28.795Z,0.80
2023-05-19T12:19:28.939Z,0.80
2023-05-19T12:20:28.761Z,0.80
2023-05-19T12:21:33.906Z,0.80
2023-05-19T12:22:29.794Z,0.80
2023-05-19T12:23:28.795Z,0.80
2023-05-19T12:24:28.781Z,0.81
2023-05-19T12:25:28.798Z,0.81
2023-05-19T12:26:28.797Z,0.83
2023-05-19T12:27:28.756Z,0.81
2023-05-19T12:28:28.747Z,0.80
2023-05-19T12:29:28.795Z,0.80
2023-05-19T12:30:28.766Z,0.81
2023-05-19T12:31:28.789Z,0.81
2023-05-19T12:32:28.943Z,0.83
2023-05-19T12:33:28.742Z,0.82
2023-05-19T12:34:28.748Z,0.81
2023-05-19T12:35:28.704Z,0.80
2023-05-19T12:36:28.706Z,0.81
2023-05-19T12:37:28.685Z,0.81
2023-05-19T12:38:28.732Z,0.82
2023-05-19T12:39:28.688Z,0.81
2023-05-19T12:40:28.685Z,0.81
2023-05-19T12:41:28.664Z,0.81
2023-05-19T12:42:28.685Z,0.81
2023-05-19T12:43:28.665Z,0.79
2023-05-19T12:44:28.659Z,0.81
2023-05-19T12:45:28.929Z,0.80
2023-05-19T12:46:28.796Z,0.81
2023-05-19T12:47:28.705Z,0.81
2023-05-19T12:48:28.639Z,0.80
2023-05-19T12:49:28.628Z,0.81
2023-05-19T12:50:28.598Z,0.80
2023-05-19T12:51:28.602Z,0.82
2023-05-19T12:52:28.590Z,0.81
2023-05-19T12:53:28.586Z,0.81
2023-05-19T12:54:28.650Z,0.80
2023-05-19T12:55:28.585Z,0.80
2023-05-19T12:56:28.589Z,0.81
2023-05-19T12:57:28.590Z,0.80
2023-05-19T12:58:28.581Z,0.81
2023-05-19T12:59:38.448Z,0.81
2023-05-19T13:00:29.567Z,0.81
2023-05-19T13:01:28.650Z,0.81
2023-05-19T13:02:28.592Z,0.82
2023-05-19T13:03:28.613Z,0.81
2023-05-19T13:04:28.532Z,0.83
2023-05-19T13:05:28.559Z,0.81
2023-05-19T13:06:28.505Z,0.81
2023-05-19T13:07:28.505Z,0.83
2023-05-19T13:08:28.511Z,0.82
2023-05-19T13:09:28.497Z,0.82
2023-05-19T13:10:28.491Z,0.81
2023-05-19T13:11:28.499Z,0.81
2023-05-19T13:12:28.496Z,0.82
2023-05-19T13:13:28.509Z,0.81
2023-05-19T13:14:28.455Z,0.81
2023-05-19T13:15:28.511Z,0.82
2023-05-19T13:16:28.503Z,0.81
2023-05-19T13:17:28.495Z,0.81
2023-05-19T13:18:28.486Z,0.82
2023-05-19T13:19:28.490Z,0.79
2023-05-19T13:20:28.813Z,0.81